sensor_id;sensor_type;location;lat;lon;timestamp;pressure;altitude;pressure_sealevel;temperature;humidity
3122;BME280;1571;52.524;14.104;2023-02-21T00:01:43;100524.69;;;8.18;100.00
3122;BME280;1571;52.524;14.104;2023-02-21T00:04:29;100524.94;;;8.13;100.00
3122;BME280;1571;52.524;14.104;2023-02-21T00:07:16;100521.34;;;8.14;100.00
3122;BME280;1571;52.524;14.104;2023-02-21T00:10:03;100519.56;;;8.15;100.00
3122;BME280;1571;52.524;14.104;2023-02-21T00:12:49;100516.94;;;8.15;100.00
3122;BME280;1571;52.524;14.104;2023-02-21T00:15:35;100516.22;;;8.11;100.00
3122;BME280;1571;52.524;14.104;2023-02-21T00:18:21;100517.94;;;8.12;100.00
3122;BME280;1571;52.524;14.104;2023-02-21T00:21:07;100517.94;;;8.12;100.00
3122;BME280;1571;52.524;14.104;2023-02-21T00:23:54;100523.13;;;8.14;100.00
3122;BME280;1571;52.524;14.104;2023-02-21T00:26:40;100527.00;;;8.08;100.00
3122;BME280;1571;52.524;14.104;2023-02-21T00:29:26;100515.03;;;8.17;100.00
3122;BME280;1571;52.524;14.104;2023-02-21T00:32:12;100520.94;;;8.06;100.00
3122;BME280;1571;52.524;14.104;2023-02-21T00:34:58;100523.59;;;8.06;100.00
3122;BME280;1571;52.524;14.104;2023-02-21T00:37:48;100528.69;;;8.09;100.00
3122;BME280;1571;52.524;14.104;2023-02-21T00:40:36;100512.81;;;8.09;100.00
3122;BME280;1571;52.524;14.104;2023-02-21T00:43:27;100513.84;;;8.07;100.00
3122;BME280;1571;52.524;14.104;2023-02-21T00:46:13;100519.06;;;8.08;100.00
3122;BME280;1571;52.524;14.104;2023-02-21T00:48:59;100514.03;;;8.04;100.00
3122;BME280;1571;52.524;14.104;2023-02-21T00:51:45;100522.38;;;7.96;100.00
3122;BME280;1571;52.524;14.104;2023-02-21T00:54:32;100506.19;;;8.02;100.00
3122;BME280;1571;52.524;14.104;2023-02-21T00:57:19;100507.19;;;8.00;100.00
3122;BME280;1571;52.524;14.104;2023-02-21T01:00:17;100531.50;;;8.06;100.00
3122;BME280;1571;52.524;14.104;2023-02-21T01:03:03;100514.94;;;8.03;100.00
3122;BME280;1571;52.524;14.104;2023-02-21T01:05:50;100525.28;;;8.07;100.00
3122;BME280;1571;52.524;14.104;2023-02-21T01:08:39;100514.44;;;8.12;100.00
3122;BME280;1571;52.524;14.104;2023-02-21T01:11:25;100517.25;;;8.09;100.00
3122;BME280;1571;52.524;14.104;2023-02-21T01:14:13;100509.41;;;8.07;100.00
3122;BME280;1571;52.524;14.104;2023-02-21T01:16:59;100515.22;;;8.14;100.00
3122;BME280;1571;52.524;14.104;2023-02-21T01:19:46;100507.53;;;8.09;100.00
3122;BME280;1571;52.524;14.104;2023-02-21T01:22:33;100500.56;;;8.08;100.00
3122;BME280;1571;52.524;14.104;2023-02-21T01:25:19;100512.13;;;8.22;100.00
3122;BME280;1571;52.524;14.104;2023-02-21T01:28:05;100497.78;;;8.26;100.00
3122;BME280;1571;52.524;14.104;2023-02-21T01:30:52;100499.59;;;8.25;100.00
3122;BME280;1571;52.524;14.104;2023-02-21T01:33:40;100485.34;;;8.28;100.00
3122;BME280;1571;52.524;14.104;2023-02-21T01:36:26;100493.28;;;8.28;100.00
3122;BME280;1571;52.524;14.104;2023-02-21T01:39:13;100487.06;;;8.29;100.00
3122;BME280;1571;52.524;14.104;2023-02-21T01:41:59;100486.03;;;8.31;100.00
3122;BME280;1571;52.524;14.104;2023-02-21T01:44:47;100504.63;;;8.30;100.00
3122;BME280;1571;52.524;14.104;2023-02-21T01:47:34;100493.69;;;8.36;100.00
3122;BME280;1571;52.524;14.104;2023-02-21T01:50:22;100498.41;;;8.31;100.00
3122;BME280;1571;52.524;14.104;2023-02-21T01:53:12;100499.00;;;8.36;100.00
3122;BME280;1571;52.524;14.104;2023-02-21T01:55:59;100478.84;;;8.33;100.00
3122;BME280;1571;52.524;14.104;2023-02-21T01:58:48;100482.63;;;8.29;100.00
3122;BME280;1571;52.524;14.104;2023-02-21T02:01:41;100483.97;;;8.37;100.00
3122;BME280;1571;52.524;14.104;2023-02-21T02:04:32;100489.19;;;8.38;100.00
3122;BME280;1571;52.524;14.104;2023-02-21T02:07:19;100458.53;;;8.34;100.00
3122;BME280;1571;52.524;14.104;2023-02-21T02:10:07;100481.41;;;8.35;100.00
3122;BME280;1571;52.524;14.104;2023-02-21T02:13:14;100476.56;;;8.43;100.00
3122;BME280;1571;52.524;14.104;2023-02-21T02:15:50;100451.19;;;8.39;100.00
3122;BME280;1571;52.524;14.104;2023-02-21T02:18:45;100460.22;;;8.35;100.00
3122;BME280;1571;52.524;14.104;2023-02-21T02:24:41;100476.97;;;8.36;100.00
3122;BME280;1571;52.524;14.104;2023-02-21T02:27:36;100459.22;;;8.38;100.00
3122;BME280;1571;52.524;14.104;2023-02-21T02:36:11;100457.78;;;8.32;100.00
3122;BME280;1571;52.524;14.104;2023-02-21T02:38:47;100463.16;;;8.30;100.00
3122;BME280;1571;52.524;14.104;2023-02-21T02:41:23;100475.44;;;8.31;100.00
3122;BME280;1571;52.524;14.104;2023-02-21T02:44:02;100479.88;;;8.31;100.00
3122;BME280;1571;52.524;14.104;2023-02-21T02:46:33;100475.34;;;8.33;100.00
3122;BME280;1571;52.524;14.104;2023-02-21T02:49:07;100489.44;;;8.33;100.00
3122;BME280;1571;52.524;14.104;2023-02-21T02:51:37;100482.63;;;8.29;100.00
3122;BME280;1571;52.524;14.104;2023-02-21T02:54:08;100482.44;;;8.32;100.00
3122;BME280;1571;52.524;14.104;2023-02-21T02:56:36;100496.69;;;8.30;100.00
3122;BME280;1571;52.524;14.104;2023-02-21T02:59:07;100483.53;;;8.28;100.00
3122;BME280;1571;52.524;14.104;2023-02-21T03:01:49;100487.81;;;8.31;100.00
3122;BME280;1571;52.524;14.104;2023-02-21T03:07:29;100502.94;;;8.29;100.00
3122;BME280;1571;52.524;14.104;2023-02-21T03:10:10;100503.31;;;8.37;100.00
3122;BME280;1571;52.524;14.104;2023-02-21T03:12:46;100499.84;;;8.37;100.00
3122;BME280;1571;52.524;14.104;2023-02-21T03:15:19;100508.22;;;8.45;100.00
3122;BME280;1571;52.524;14.104;2023-02-21T03:17:51;100501.22;;;8.44;100.00
3122;BME280;1571;52.524;14.104;2023-02-21T03:20:21;100502.25;;;8.41;100.00
3122;BME280;1571;52.524;14.104;2023-02-21T03:22:53;100508.72;;;8.51;100.00
3122;BME280;1571;52.524;14.104;2023-02-21T03:25:23;100504.94;;;8.55;100.00
3122;BME280;1571;52.524;14.104;2023-02-21T03:27:55;100501.56;;;8.53;100.00
3122;BME280;1571;52.524;14.104;2023-02-21T03:30:27;100477.56;;;8.57;100.00
3122;BME280;1571;52.524;14.104;2023-02-21T03:32:57;100490.44;;;8.63;100.00
3122;BME280;1571;52.524;14.104;2023-02-21T03:35:27;100475.06;;;8.69;100.00
3122;BME280;1571;52.524;14.104;2023-02-21T03:37:59;100483.34;;;8.63;100.00
3122;BME280;1571;52.524;14.104;2023-02-21T03:40:29;100477.00;;;8.66;100.00
3122;BME280;1571;52.524;14.104;2023-02-21T03:43:00;100480.19;;;8.57;100.00
3122;BME280;1571;52.524;14.104;2023-02-21T03:45:34;100483.44;;;8.62;100.00
3122;BME280;1571;52.524;14.104;2023-02-21T03:48:07;100481.53;;;8.64;100.00
3122;BME280;1571;52.524;14.104;2023-02-21T03:50:36;100489.72;;;8.75;100.00
3122;BME280;1571;52.524;14.104;2023-02-21T03:53:06;100478.75;;;8.81;100.00
3122;BME280;1571;52.524;14.104;2023-02-21T03:55:36;100478.75;;;8.81;100.00
3122;BME280;1571;52.524;14.104;2023-02-21T03:58:10;100484.97;;;8.80;100.00
3122;BME280;1571;52.524;14.104;2023-02-21T04:00:39;100480.44;;;8.82;100.00
3122;BME280;1571;52.524;14.104;2023-02-21T04:03:08;100496.34;;;8.82;100.00
3122;BME280;1571;52.524;14.104;2023-02-21T04:05:46;100491.22;;;8.79;100.00
3122;BME280;1571;52.524;14.104;2023-02-21T04:08:16;100484.34;;;8.77;100.00
3122;BME280;1571;52.524;14.104;2023-02-21T04:10:44;100506.81;;;8.69;100.00
3122;BME280;1571;52.524;14.104;2023-02-21T04:13:20;100518.00;;;8.59;100.00
3122;BME280;1571;52.524;14.104;2023-02-21T04:15:51;100511.75;;;8.60;100.00
3122;BME280;1571;52.524;14.104;2023-02-21T04:18:20;100522.88;;;8.50;100.00
3122;BME280;1571;52.524;14.104;2023-02-21T04:20:50;100533.66;;;8.47;100.00
3122;BME280;1571;52.524;14.104;2023-02-21T04:23:21;100531.16;;;8.44;100.00
3122;BME280;1571;52.524;14.104;2023-02-21T04:25:49;100532.13;;;8.43;100.00
3122;BME280;1571;52.524;14.104;2023-02-21T04:28:25;100540.75;;;8.47;100.00
3122;BME280;1571;52.524;14.104;2023-02-21T04:30:53;100549.53;;;8.47;100.00
3122;BME280;1571;52.524;14.104;2023-02-21T04:33:22;100550.44;;;8.46;100.00
3122;BME280;1571;52.524;14.104;2023-02-21T04:35:50;100556.50;;;8.48;100.00
3122;BME280;1571;52.524;14.104;2023-02-21T04:38:30;100550.09;;;8.52;100.00
3122;BME280;1571;52.524;14.104;2023-02-21T04:40:59;100547.72;;;8.48;100.00
3122;BME280;1571;52.524;14.104;2023-02-21T04:43:28;100550.28;;;8.49;100.00
3122;BME280;1571;52.524;14.104;2023-02-21T04:45:57;100547.81;;;8.46;100.00
3122;BME280;1571;52.524;14.104;2023-02-21T04:48:26;100556.09;;;8.40;100.00
3122;BME280;1571;52.524;14.104;2023-02-21T04:50:54;100557.25;;;8.34;100.00
3122;BME280;1571;52.524;14.104;2023-02-21T04:53:34;100564.41;;;8.32;100.00
3122;BME280;1571;52.524;14.104;2023-02-21T04:56:02;100570.47;;;8.34;100.00
3122;BME280;1571;52.524;14.104;2023-02-21T04:58:31;100574.34;;;8.29;100.00
3122;BME280;1571;52.524;14.104;2023-02-21T05:01:11;100568.78;;;8.33;100.00
3122;BME280;1571;52.524;14.104;2023-02-21T05:03:40;100571.19;;;8.38;100.00
3122;BME280;1571;52.524;14.104;2023-02-21T05:06:08;100573.81;;;8.38;100.00
3122;BME280;1571;52.524;14.104;2023-02-21T05:08:38;100576.47;;;8.38;100.00
3122;BME280;1571;52.524;14.104;2023-02-21T05:11:06;100574.75;;;8.37;100.00
3122;BME280;1571;52.524;14.104;2023-02-21T05:13:34;100580.97;;;8.36;100.00
3122;BME280;1571;52.524;14.104;2023-02-21T05:16:03;100583.78;;;8.33;100.00
3122;BME280;1571;52.524;14.104;2023-02-21T05:18:31;100588.91;;;8.36;100.00
3122;BME280;1571;52.524;14.104;2023-02-21T05:21:00;100597.78;;;8.35;100.00
3122;BME280;1571;52.524;14.104;2023-02-21T05:23:29;100595.25;;;8.33;100.00
3122;BME280;1571;52.524;14.104;2023-02-21T05:26:09;100601.72;;;8.28;100.00
3122;BME280;1571;52.524;14.104;2023-02-21T05:28:38;100615.38;;;8.36;100.00
3122;BME280;1571;52.524;14.104;2023-02-21T05:31:07;100614.78;;;8.31;100.00
3122;BME280;1571;52.524;14.104;2023-02-21T05:33:35;100619.81;;;8.36;100.00
3122;BME280;1571;52.524;14.104;2023-02-21T05:36:04;100605.63;;;8.37;100.00
3122;BME280;1571;52.524;14.104;2023-02-21T05:38:32;100620.44;;;8.41;100.00
3122;BME280;1571;52.524;14.104;2023-02-21T05:41:12;100620.81;;;8.33;100.00
3122;BME280;1571;52.524;14.104;2023-02-21T05:43:42;100626.03;;;8.34;100.00
3122;BME280;1571;52.524;14.104;2023-02-21T05:46:21;100622.53;;;8.34;100.00
3122;BME280;1571;52.524;14.104;2023-02-21T05:48:50;100627.81;;;8.34;100.00
3122;BME280;1571;52.524;14.104;2023-02-21T05:51:18;100634.16;;;8.31;100.00
3122;BME280;1571;52.524;14.104;2023-02-21T05:53:47;100633.72;;;8.39;100.00
3122;BME280;1571;52.524;14.104;2023-02-21T05:56:18;100640.09;;;8.35;100.00
3122;BME280;1571;52.524;14.104;2023-02-21T05:58:47;100646.06;;;8.40;100.00
3122;BME280;1571;52.524;14.104;2023-02-21T06:01:15;100651.44;;;8.37;100.00
3122;BME280;1571;52.524;14.104;2023-02-21T06:03:44;100648.81;;;8.37;100.00
3122;BME280;1571;52.524;14.104;2023-02-21T06:06:14;100654.28;;;8.34;100.00
3122;BME280;1571;52.524;14.104;2023-02-21T06:08:43;100672.34;;;8.26;100.00
3122;BME280;1571;52.524;14.104;2023-02-21T06:11:13;100665.69;;;8.34;100.00
3122;BME280;1571;52.524;14.104;2023-02-21T06:13:43;100671.00;;;8.34;100.00
3122;BME280;1571;52.524;14.104;2023-02-21T06:16:11;100678.00;;;8.36;100.00
3122;BME280;1571;52.524;14.104;2023-02-21T06:18:41;100675.16;;;8.40;100.00
3122;BME280;1571;52.524;14.104;2023-02-21T06:21:09;100687.81;;;8.33;100.00
3122;BME280;1571;52.524;14.104;2023-02-21T06:23:37;100691.69;;;8.44;100.00
3122;BME280;1571;52.524;14.104;2023-02-21T06:26:05;100686.06;;;8.50;100.00
3122;BME280;1571;52.524;14.104;2023-02-21T06:28:34;100671.03;;;8.50;100.00
3122;BME280;1571;52.524;14.104;2023-02-21T06:31:04;100677.09;;;8.52;100.00
3122;BME280;1571;52.524;14.104;2023-02-21T06:33:33;100654.84;;;8.57;100.00
3122;BME280;1571;52.524;14.104;2023-02-21T06:36:05;100652.00;;;8.60;100.00
3122;BME280;1571;52.524;14.104;2023-02-21T06:38:33;100658.50;;;8.54;100.00
3122;BME280;1571;52.524;14.104;2023-02-21T06:41:04;100648.78;;;8.54;100.00
3122;BME280;1571;52.524;14.104;2023-02-21T06:43:34;100647.50;;;8.62;100.00
3122;BME280;1571;52.524;14.104;2023-02-21T06:46:04;100652.63;;;8.65;100.00
3122;BME280;1571;52.524;14.104;2023-02-21T06:48:33;100643.91;;;8.63;100.00
3122;BME280;1571;52.524;14.104;2023-02-21T06:51:01;100628.97;;;8.62;100.00
3122;BME280;1571;52.524;14.104;2023-02-21T06:53:31;100633.06;;;8.67;100.00
3122;BME280;1571;52.524;14.104;2023-02-21T06:55:59;100621.47;;;8.70;100.00
3122;BME280;1571;52.524;14.104;2023-02-21T06:58:27;100628.38;;;8.72;100.00
3122;BME280;1571;52.524;14.104;2023-02-21T07:00:56;100631.34;;;8.82;100.00
3122;BME280;1571;52.524;14.104;2023-02-21T07:03:26;100629.97;;;8.75;100.00
3122;BME280;1571;52.524;14.104;2023-02-21T07:05:54;100624.09;;;8.86;100.00
3122;BME280;1571;52.524;14.104;2023-02-21T07:08:22;100624.00;;;8.87;100.00
3122;BME280;1571;52.524;14.104;2023-02-21T07:10:51;100617.69;;;8.90;100.00
3122;BME280;1571;52.524;14.104;2023-02-21T07:13:20;100608.63;;;8.94;100.00
3122;BME280;1571;52.524;14.104;2023-02-21T07:15:48;100607.59;;;8.96;100.00
3122;BME280;1571;52.524;14.104;2023-02-21T07:18:16;100604.00;;;8.98;100.00
3122;BME280;1571;52.524;14.104;2023-02-21T07:20:46;100603.22;;;8.95;100.00
3122;BME280;1571;52.524;14.104;2023-02-21T07:23:15;100600.06;;;8.89;100.00
3122;BME280;1571;52.524;14.104;2023-02-21T07:25:43;100612.19;;;8.93;100.00
3122;BME280;1571;52.524;14.104;2023-02-21T07:28:12;100604.06;;;8.96;100.00
3122;BME280;1571;52.524;14.104;2023-02-21T07:30:40;100615.31;;;8.85;100.00
3122;BME280;1571;52.524;14.104;2023-02-21T07:33:08;100612.47;;;8.88;100.00
3122;BME280;1571;52.524;14.104;2023-02-21T07:35:36;100616.47;;;8.95;100.00
3122;BME280;1571;52.524;14.104;2023-02-21T07:38:06;100620.41;;;8.88;100.00
3122;BME280;1571;52.524;14.104;2023-02-21T07:40:34;100620.44;;;9.03;100.00
3122;BME280;1571;52.524;14.104;2023-02-21T07:43:02;100638.25;;;9.01;100.00
3122;BME280;1571;52.524;14.104;2023-02-21T07:45:31;100642.78;;;8.99;100.00
3122;BME280;1571;52.524;14.104;2023-02-21T07:48:00;100637.22;;;9.03;100.00
3122;BME280;1571;52.524;14.104;2023-02-21T07:50:28;100639.94;;;9.02;100.00
3122;BME280;1571;52.524;14.104;2023-02-21T07:52:56;100647.13;;;9.00;100.00
3122;BME280;1571;52.524;14.104;2023-02-21T07:55:27;100643.19;;;9.07;100.00
3122;BME280;1571;52.524;14.104;2023-02-21T07:57:55;100650.34;;;9.05;100.00
3122;BME280;1571;52.524;14.104;2023-02-21T08:00:23;100654.63;;;9.07;100.00
3122;BME280;1571;52.524;14.104;2023-02-21T08:02:52;100653.97;;;9.04;100.00
3122;BME280;1571;52.524;14.104;2023-02-21T08:05:21;100648.81;;;9.16;100.00
3122;BME280;1571;52.524;14.104;2023-02-21T08:07:49;100658.56;;;9.00;100.00
3122;BME280;1571;52.524;14.104;2023-02-21T08:10:20;100674.25;;;9.19;100.00
3122;BME280;1571;52.524;14.104;2023-02-21T08:12:51;100666.56;;;9.30;100.00
3122;BME280;1571;52.524;14.104;2023-02-21T08:15:19;100667.97;;;9.36;100.00
3122;BME280;1571;52.524;14.104;2023-02-21T08:17:49;100668.09;;;9.34;100.00
3122;BME280;1571;52.524;14.104;2023-02-21T08:20:18;100680.94;;;9.41;98.99
3122;BME280;1571;52.524;14.104;2023-02-21T08:22:46;100670.72;;;9.34;97.23
3122;BME280;1571;52.524;14.104;2023-02-21T08:25:15;100673.69;;;9.44;96.94
3122;BME280;1571;52.524;14.104;2023-02-21T08:27:43;100672.69;;;9.61;97.37
3122;BME280;1571;52.524;14.104;2023-02-21T08:30:15;100668.81;;;9.67;96.31
3122;BME280;1571;52.524;14.104;2023-02-21T08:32:44;100660.88;;;9.67;95.57
3122;BME280;1571;52.524;14.104;2023-02-21T08:35:14;100659.81;;;9.55;95.13
3122;BME280;1571;52.524;14.104;2023-02-21T08:37:43;100677.44;;;9.40;96.14
3122;BME280;1571;52.524;14.104;2023-02-21T08:40:12;100671.88;;;9.45;95.74
3122;BME280;1571;52.524;14.104;2023-02-21T08:42:41;100685.47;;;9.38;94.56
3122;BME280;1571;52.524;14.104;2023-02-21T08:45:16;100692.66;;;9.36;92.88
3122;BME280;1571;52.524;14.104;2023-02-21T08:47:45;100685.47;;;9.38;92.12
3122;BME280;1571;52.524;14.104;2023-02-21T08:50:14;100691.47;;;9.42;92.16
3122;BME280;1571;52.524;14.104;2023-02-21T08:52:44;100697.81;;;9.40;91.81
3122;BME280;1571;52.524;14.104;2023-02-21T08:55:13;100705.00;;;9.37;91.33
3122;BME280;1571;52.524;14.104;2023-02-21T08:57:42;100701.75;;;9.32;91.50
3122;BME280;1571;52.524;14.104;2023-02-21T09:00:12;100713.47;;;9.28;91.85
3122;BME280;1571;52.524;14.104;2023-02-21T09:02:42;100718.50;;;9.33;91.55
3122;BME280;1571;52.524;14.104;2023-02-21T09:05:13;100722.06;;;9.32;91.06
3122;BME280;1571;52.524;14.104;2023-02-21T09:07:42;100724.38;;;9.38;90.60
3122;BME280;1571;52.524;14.104;2023-02-21T09:10:10;100726.59;;;9.30;89.92
3122;BME280;1571;52.524;14.104;2023-02-21T09:12:39;100735.06;;;9.36;88.91
3122;BME280;1571;52.524;14.104;2023-02-21T09:15:07;100724.47;;;9.36;88.28
3122;BME280;1571;52.524;14.104;2023-02-21T09:17:36;100729.06;;;9.49;87.73
3122;BME280;1571;52.524;14.104;2023-02-21T09:20:08;100716.75;;;9.48;87.13
3122;BME280;1571;52.524;14.104;2023-02-21T09:22:36;100735.06;;;9.36;86.27
3122;BME280;1571;52.524;14.104;2023-02-21T09:25:05;100729.59;;;9.40;85.50
3122;BME280;1571;52.524;14.104;2023-02-21T09:27:35;100730.91;;;9.32;84.28
3122;BME280;1571;52.524;14.104;2023-02-21T09:30:05;100730.13;;;9.30;84.04
3122;BME280;1571;52.524;14.104;2023-02-21T09:32:34;100741.13;;;9.38;84.22
3122;BME280;1571;52.524;14.104;2023-02-21T09:35:03;100737.81;;;9.35;83.64
3122;BME280;1571;52.524;14.104;2023-02-21T09:37:36;100746.78;;;9.32;83.89
3122;BME280;1571;52.524;14.104;2023-02-21T09:40:10;100743.78;;;9.38;84.04
3122;BME280;1571;52.524;14.104;2023-02-21T09:42:39;100737.03;;;9.33;83.76
3122;BME280;1571;52.524;14.104;2023-02-21T09:45:13;100756.78;;;9.27;84.19
3122;BME280;1571;52.524;14.104;2023-02-21T09:47:42;100768.06;;;9.31;84.64
3122;BME280;1571;52.524;14.104;2023-02-21T09:50:14;100763.63;;;9.31;84.07
3122;BME280;1571;52.524;14.104;2023-02-21T09:52:45;100766.28;;;9.15;83.75
3122;BME280;1571;52.524;14.104;2023-02-21T09:55:29;100766.97;;;9.03;82.98
3122;BME280;1571;52.524;14.104;2023-02-21T09:57:59;100779.09;;;9.23;82.38
3122;BME280;1571;52.524;14.104;2023-02-21T10:00:33;100776.94;;;9.14;81.08
3122;BME280;1571;52.524;14.104;2023-02-21T10:03:12;100772.88;;;9.08;80.82
3122;BME280;1571;52.524;14.104;2023-02-21T10:05:45;100780.88;;;9.23;80.41
3122;BME280;1571;52.524;14.104;2023-02-21T10:08:23;100789.59;;;9.41;80.13
3122;BME280;1571;52.524;14.104;2023-02-21T10:10:59;100784.28;;;9.41;78.81
3122;BME280;1571;52.524;14.104;2023-02-21T10:13:35;100790.19;;;9.30;78.61
3122;BME280;1571;52.524;14.104;2023-02-21T10:16:11;100785.81;;;9.45;78.39
3122;BME280;1571;52.524;14.104;2023-02-21T10:18:46;100800.03;;;9.44;77.42
3122;BME280;1571;52.524;14.104;2023-02-21T10:21:22;100796.09;;;9.35;77.07
3122;BME280;1571;52.524;14.104;2023-02-21T10:23:54;100798.22;;;9.44;76.89
3122;BME280;1571;52.524;14.104;2023-02-21T10:26:27;100808.22;;;9.55;76.55
3122;BME280;1571;52.524;14.104;2023-02-21T10:28:55;100814.91;;;9.30;76.14
3122;BME280;1571;52.524;14.104;2023-02-21T10:31:29;100814.97;;;9.45;76.42
3122;BME280;1571;52.524;14.104;2023-02-21T10:33:58;100803.44;;;9.46;75.61
3122;BME280;1571;52.524;14.104;2023-02-21T10:36:27;100810.38;;;9.48;75.84
3122;BME280;1571;52.524;14.104;2023-02-21T10:39:03;100816.19;;;9.55;75.59
3122;BME280;1571;52.524;14.104;2023-02-21T10:41:35;100824.66;;;9.46;75.04
3122;BME280;1571;52.524;14.104;2023-02-21T10:44:09;100833.19;;;9.35;75.65
3122;BME280;1571;52.524;14.104;2023-02-21T10:46:39;100828.56;;;9.38;75.31
3122;BME280;1571;52.524;14.104;2023-02-21T10:49:20;100840.50;;;9.14;75.71
3122;BME280;1571;52.524;14.104;2023-02-21T10:52:04;100838.75;;;9.46;76.45
3122;BME280;1571;52.524;14.104;2023-02-21T10:54:34;100842.25;;;9.47;76.05
3122;BME280;1571;52.524;14.104;2023-02-21T10:57:06;100835.66;;;9.54;75.50
3122;BME280;1571;52.524;14.104;2023-02-21T10:59:37;100856.09;;;9.36;75.94
3122;BME280;1571;52.524;14.104;2023-02-21T11:02:27;100851.16;;;9.46;75.06
3122;BME280;1571;52.524;14.104;2023-02-21T11:05:07;100857.88;;;9.35;74.61
3122;BME280;1571;52.524;14.104;2023-02-21T11:07:36;100841.91;;;9.37;74.55
3122;BME280;1571;52.524;14.104;2023-02-21T11:15:45;100855.22;;;9.51;74.39
3122;BME280;1571;52.524;14.104;2023-02-21T11:18:17;100852.88;;;9.77;74.25
3122;BME280;1571;52.524;14.104;2023-02-21T11:20:46;100844.22;;;10.05;72.82
3122;BME280;1571;52.524;14.104;2023-02-21T11:23:19;100852.47;;;9.85;72.48
3122;BME280;1571;52.524;14.104;2023-02-21T11:25:51;100845.81;;;9.77;71.61
3122;BME280;1571;52.524;14.104;2023-02-21T11:28:24;100834.78;;;9.99;71.17
3122;BME280;1571;52.524;14.104;2023-02-21T11:31:12;100841.97;;;10.13;71.55
3122;BME280;1571;52.524;14.104;2023-02-21T11:33:49;100845.00;;;10.21;71.61
3122;BME280;1571;52.524;14.104;2023-02-21T11:36:19;100838.72;;;10.08;71.79
3122;BME280;1571;52.524;14.104;2023-02-21T11:39:00;100852.50;;;10.45;71.42
3122;BME280;1571;52.524;14.104;2023-02-21T11:41:35;100849.47;;;10.21;70.08
3122;BME280;1571;52.524;14.104;2023-02-21T11:44:24;100849.44;;;10.51;70.38
3122;BME280;1571;52.524;14.104;2023-02-21T11:46:57;100850.59;;;9.87;70.92
3122;BME280;1571;52.524;14.104;2023-02-21T11:49:36;100846.84;;;10.05;71.54
3122;BME280;1571;52.524;14.104;2023-02-21T11:52:09;100849.06;;;9.83;70.14
3122;BME280;1571;52.524;14.104;2023-02-21T11:54:39;100854.34;;;10.13;70.87
3122;BME280;1571;52.524;14.104;2023-02-21T11:57:14;100856.56;;;10.20;71.05
3122;BME280;1571;52.524;14.104;2023-02-21T11:59:53;100859.59;;;10.14;70.89
3122;BME280;1571;52.524;14.104;2023-02-21T12:02:46;100843.84;;;10.11;69.30
3122;BME280;1571;52.524;14.104;2023-02-21T12:05:31;100854.78;;;9.91;68.46
3122;BME280;1571;52.524;14.104;2023-02-21T12:11:01;100852.50;;;9.99;68.41
3122;BME280;1571;52.524;14.104;2023-02-21T12:13:41;100866.28;;;10.06;67.70
3122;BME280;1571;52.524;14.104;2023-02-21T12:16:23;100866.84;;;10.11;68.21
3122;BME280;1571;52.524;14.104;2023-02-21T12:19:10;100854.63;;;10.08;68.08
3122;BME280;1571;52.524;14.104;2023-02-21T12:21:53;100863.47;;;9.93;68.79
3122;BME280;1571;52.524;14.104;2023-02-21T12:24:38;100862.50;;;9.79;68.73
3122;BME280;1571;52.524;14.104;2023-02-21T12:27:16;100862.41;;;9.65;69.02
3122;BME280;1571;52.524;14.104;2023-02-21T12:30:02;100851.28;;;9.74;69.12
3122;BME280;1571;52.524;14.104;2023-02-21T12:32:43;100858.13;;;9.78;68.84
3122;BME280;1571;52.524;14.104;2023-02-21T12:35:35;100870.25;;;9.83;69.20
3122;BME280;1571;52.524;14.104;2023-02-21T12:38:11;100862.28;;;9.98;68.62
3122;BME280;1571;52.524;14.104;2023-02-21T12:40:50;100860.25;;;10.18;68.77
3122;BME280;1571;52.524;14.104;2023-02-21T12:43:33;100860.81;;;10.39;68.16
3122;BME280;1571;52.524;14.104;2023-02-21T12:46:10;100861.22;;;10.61;68.59
3122;BME280;1571;52.524;14.104;2023-02-21T12:48:48;100863.53;;;10.68;68.40
3122;BME280;1571;52.524;14.104;2023-02-21T12:51:25;100862.41;;;10.72;68.21
3122;BME280;1571;52.524;14.104;2023-02-21T12:54:01;100860.38;;;10.75;68.15
3122;BME280;1571;52.524;14.104;2023-02-21T12:56:36;100858.84;;;10.43;68.18
3122;BME280;1571;52.524;14.104;2023-02-21T12:59:12;100862.16;;;10.46;69.11
3122;BME280;1571;52.524;14.104;2023-02-21T13:01:45;100872.03;;;10.28;68.54
3122;BME280;1571;52.524;14.104;2023-02-21T13:04:23;100860.34;;;10.16;69.10
3122;BME280;1571;52.524;14.104;2023-02-21T13:06:57;100862.13;;;10.32;68.60
3122;BME280;1571;52.524;14.104;2023-02-21T13:09:31;100861.75;;;10.38;68.54
3122;BME280;1571;52.524;14.104;2023-02-21T13:12:05;100855.53;;;10.53;67.83
3122;BME280;1571;52.524;14.104;2023-02-21T13:14:39;100866.69;;;10.44;67.41
3122;BME280;1571;52.524;14.104;2023-02-21T13:17:09;100858.47;;;10.18;67.41
3122;BME280;1571;52.524;14.104;2023-02-21T13:19:46;100854.69;;;10.23;67.54
3122;BME280;1571;52.524;14.104;2023-02-21T13:25:36;100855.75;;;10.04;67.28
3122;BME280;1571;52.524;14.104;2023-02-21T13:28:11;100860.63;;;10.12;68.05
3122;BME280;1571;52.524;14.104;2023-02-21T13:30:45;100860.81;;;9.93;68.94
3122;BME280;1571;52.524;14.104;2023-02-21T13:33:27;100867.88;;;9.62;69.29
3122;BME280;1571;52.524;14.104;2023-02-21T13:35:58;100863.75;;;9.72;69.57
3122;BME280;1571;52.524;14.104;2023-02-21T13:38:28;100871.09;;;9.83;69.37
3122;BME280;1571;52.524;14.104;2023-02-21T13:41:05;100853.94;;;9.74;69.61
3122;BME280;1571;52.524;14.104;2023-02-21T13:43:37;100862.06;;;9.71;69.82
3122;BME280;1571;52.524;14.104;2023-02-21T13:55:30;100846.09;;;10.03;69.37
3122;BME280;1571;52.524;14.104;2023-02-21T14:07:47;100865.16;;;9.79;68.10
3122;BME280;1571;52.524;14.104;2023-02-21T14:10:39;100849.47;;;9.91;68.07
3122;BME280;1571;52.524;14.104;2023-02-21T14:13:22;100856.94;;;9.68;68.80
3122;BME280;1571;52.524;14.104;2023-02-21T14:15:57;100859.69;;;9.67;69.28
3122;BME280;1571;52.524;14.104;2023-02-21T14:18:28;100848.88;;;9.70;69.06
3122;BME280;1571;52.524;14.104;2023-02-21T14:20:58;100857.44;;;9.59;68.75
3122;BME280;1571;52.524;14.104;2023-02-21T14:23:38;100846.84;;;9.59;68.27
3122;BME280;1571;52.524;14.104;2023-02-21T14:26:41;100850.97;;;9.49;68.28